sensor_id;sensor_type;location;lat;lon;timestamp;P1;durP1;ratioP1;P2;durP2;ratioP2
55455;SDS011;63021;52.836;6.376;2023-01-29T00:01:08;19.95;;;13.02;;
55455;SDS011;63021;52.836;6.376;2023-01-29T00:03:34;21.30;;;13.20;;
55455;SDS011;63021;52.836;6.376;2023-01-29T00:06:03;19.58;;;13.52;;
55455;SDS011;63021;52.836;6.376;2023-01-29T00:08:32;20.30;;;12.80;;
55455;SDS011;63021;52.836;6.376;2023-01-29T00:11:02;17.60;;;11.73;;
55455;SDS011;63021;52.836;6.376;2023-01-29T00:13:28;23.58;;;12.32;;
55455;SDS011;63021;52.836;6.376;2023-01-29T00:15:54;15.75;;;12.30;;
55455;SDS011;63021;52.836;6.376;2023-01-29T00:18:21;18.95;;;12.45;;
55455;SDS011;63021;52.836;6.376;2023-01-29T00:20:47;17.58;;;11.90;;
55455;SDS011;63021;52.836;6.376;2023-01-29T00:23:12;18.33;;;12.80;;
55455;SDS011;63021;52.836;6.376;2023-01-29T00:25:39;19.17;;;13.60;;
55455;SDS011;63021;52.836;6.376;2023-01-29T00:28:05;22.98;;;12.75;;
55455;SDS011;63021;52.836;6.376;2023-01-29T00:30:30;23.98;;;13.60;;
55455;SDS011;63021;52.836;6.376;2023-01-29T00:32:56;21.70;;;13.05;;
55455;SDS011;63021;52.836;6.376;2023-01-29T00:35:21;21.33;;;13.95;;
55455;SDS011;63021;52.836;6.376;2023-01-29T00:37:47;20.25;;;12.98;;
55455;SDS011;63021;52.836;6.376;2023-01-29T00:40:12;20.90;;;13.68;;
55455;SDS011;63021;52.836;6.376;2023-01-29T00:42:38;18.33;;;13.48;;
55455;SDS011;63021;52.836;6.376;2023-01-29T00:45:21;18.50;;;13.00;;
55455;SDS011;63021;52.836;6.376;2023-01-29T00:47:47;21.02;;;12.63;;
55455;SDS011;63021;52.836;6.376;2023-01-29T00:50:12;20.40;;;12.98;;
55455;SDS011;63021;52.836;6.376;2023-01-29T00:52:38;19.13;;;12.85;;
55455;SDS011;63021;52.836;6.376;2023-01-29T00:55:08;18.83;;;13.40;;
55455;SDS011;63021;52.836;6.376;2023-01-29T00:57:34;20.95;;;13.82;;
55455;SDS011;63021;52.836;6.376;2023-01-29T01:00:00;19.88;;;13.18;;
55455;SDS011;63021;52.836;6.376;2023-01-29T01:02:27;18.38;;;13.35;;
55455;SDS011;63021;52.836;6.376;2023-01-29T01:05:12;19.77;;;13.38;;
55455;SDS011;63021;52.836;6.376;2023-01-29T01:07:42;21.08;;;12.77;;
55455;SDS011;63021;52.836;6.376;2023-01-29T01:10:12;20.40;;;12.88;;
55455;SDS011;63021;52.836;6.376;2023-01-29T01:12:53;17.13;;;12.70;;
55455;SDS011;63021;52.836;6.376;2023-01-29T01:15:23;19.63;;;12.90;;
55455;SDS011;63021;52.836;6.376;2023-01-29T01:17:55;17.83;;;12.52;;
55455;SDS011;63021;52.836;6.376;2023-01-29T01:20:23;18.27;;;12.75;;
55455;SDS011;63021;52.836;6.376;2023-01-29T01:22:49;20.10;;;13.23;;
55455;SDS011;63021;52.836;6.376;2023-01-29T01:25:15;19.10;;;12.63;;
55455;SDS011;63021;52.836;6.376;2023-01-29T01:27:41;21.73;;;12.18;;
55455;SDS011;63021;52.836;6.376;2023-01-29T01:30:08;24.25;;;13.55;;
55455;SDS011;63021;52.836;6.376;2023-01-29T01:32:39;26.92;;;12.82;;
55455;SDS011;63021;52.836;6.376;2023-01-29T01:35:05;19.05;;;13.02;;
55455;SDS011;63021;52.836;6.376;2023-01-29T01:37:31;18.38;;;12.13;;
55455;SDS011;63021;52.836;6.376;2023-01-29T01:39:57;17.67;;;12.25;;
55455;SDS011;63021;52.836;6.376;2023-01-29T01:42:29;18.83;;;12.85;;
55455;SDS011;63021;52.836;6.376;2023-01-29T01:45:02;18.75;;;13.65;;
55455;SDS011;63021;52.836;6.376;2023-01-29T01:50:04;19.63;;;12.15;;
55455;SDS011;63021;52.836;6.376;2023-01-29T01:52:38;17.45;;;12.90;;
55455;SDS011;63021;52.836;6.376;2023-01-29T01:55:09;17.05;;;12.40;;
55455;SDS011;63021;52.836;6.376;2023-01-29T01:57:37;15.75;;;11.88;;
55455;SDS011;63021;52.836;6.376;2023-01-29T02:00:09;17.75;;;11.75;;
55455;SDS011;63021;52.836;6.376;2023-01-29T02:02:38;18.25;;;11.93;;
55455;SDS011;63021;52.836;6.376;2023-01-29T02:05:25;17.63;;;11.85;;
55455;SDS011;63021;52.836;6.376;2023-01-29T02:08:10;20.50;;;11.98;;
55455;SDS011;63021;52.836;6.376;2023-01-29T02:10:55;16.60;;;12.57;;
55455;SDS011;63021;52.836;6.376;2023-01-29T02:13:22;21.02;;;12.23;;
55455;SDS011;63021;52.836;6.376;2023-01-29T02:15:47;17.40;;;11.98;;
55455;SDS011;63021;52.836;6.376;2023-01-29T02:18:14;19.45;;;13.05;;
55455;SDS011;63021;52.836;6.376;2023-01-29T02:20:42;17.77;;;12.02;;
55455;SDS011;63021;52.836;6.376;2023-01-29T02:28:53;16.05;;;11.88;;
55455;SDS011;63021;52.836;6.376;2023-01-29T02:31:48;17.35;;;12.15;;
55455;SDS011;63021;52.836;6.376;2023-01-29T02:36:56;20.60;;;13.02;;
55455;SDS011;63021;52.836;6.376;2023-01-29T02:39:32;16.23;;;12.50;;
55455;SDS011;63021;52.836;6.376;2023-01-29T02:42:12;17.27;;;13.48;;
55455;SDS011;63021;52.836;6.376;2023-01-29T02:44:46;18.58;;;12.73;;
55455;SDS011;63021;52.836;6.376;2023-01-29T02:50:20;19.67;;;12.68;;
55455;SDS011;63021;52.836;6.376;2023-01-29T02:58:21;19.13;;;12.57;;
55455;SDS011;63021;52.836;6.376;2023-01-29T03:00:55;18.90;;;12.15;;
55455;SDS011;63021;52.836;6.376;2023-01-29T03:03:29;18.13;;;12.55;;
55455;SDS011;63021;52.836;6.376;2023-01-29T03:08:43;15.95;;;11.07;;
55455;SDS011;63021;52.836;6.376;2023-01-29T03:11:14;15.82;;;11.55;;
55455;SDS011;63021;52.836;6.376;2023-01-29T03:13:46;19.90;;;13.38;;
55455;SDS011;63021;52.836;6.376;2023-01-29T03:16:16;14.82;;;11.30;;
55455;SDS011;63021;52.836;6.376;2023-01-29T03:18:45;16.15;;;12.38;;
55455;SDS011;63021;52.836;6.376;2023-01-29T03:21:20;17.08;;;12.68;;
55455;SDS011;63021;52.836;6.376;2023-01-29T03:24:08;23.02;;;13.48;;
55455;SDS011;63021;52.836;6.376;2023-01-29T03:26:56;18.85;;;13.43;;
55455;SDS011;63021;52.836;6.376;2023-01-29T03:29:44;16.33;;;11.77;;
55455;SDS011;63021;52.836;6.376;2023-01-29T03:32:30;21.63;;;13.00;;
55455;SDS011;63021;52.836;6.376;2023-01-29T03:34:56;17.77;;;13.68;;
55455;SDS011;63021;52.836;6.376;2023-01-29T03:37:28;16.67;;;13.13;;
55455;SDS011;63021;52.836;6.376;2023-01-29T03:39:59;19.98;;;13.07;;
55455;SDS011;63021;52.836;6.376;2023-01-29T03:42:35;17.38;;;13.18;;
55455;SDS011;63021;52.836;6.376;2023-01-29T03:48:07;22.13;;;15.60;;
55455;SDS011;63021;52.836;6.376;2023-01-29T03:56:20;20.95;;;14.25;;
55455;SDS011;63021;52.836;6.376;2023-01-29T04:01:26;24.02;;;16.10;;
55455;SDS011;63021;52.836;6.376;2023-01-29T04:06:46;23.38;;;15.25;;
55455;SDS011;63021;52.836;6.376;2023-01-29T04:09:18;24.50;;;17.00;;
55455;SDS011;63021;52.836;6.376;2023-01-29T04:11:49;25.73;;;15.55;;
55455;SDS011;63021;52.836;6.376;2023-01-29T04:14:19;24.08;;;16.52;;
55455;SDS011;63021;52.836;6.376;2023-01-29T04:16:46;22.00;;;15.35;;
55455;SDS011;63021;52.836;6.376;2023-01-29T04:19:15;24.40;;;17.45;;
55455;SDS011;63021;52.836;6.376;2023-01-29T04:21:40;25.88;;;17.83;;
55455;SDS011;63021;52.836;6.376;2023-01-29T04:24:06;24.33;;;17.30;;
55455;SDS011;63021;52.836;6.376;2023-01-29T04:26:38;21.90;;;16.10;;
55455;SDS011;63021;52.836;6.376;2023-01-29T04:29:27;33.75;;;17.20;;
55455;SDS011;63021;52.836;6.376;2023-01-29T04:35:01;24.15;;;16.65;;
55455;SDS011;63021;52.836;6.376;2023-01-29T04:37:52;27.48;;;17.02;;
55455;SDS011;63021;52.836;6.376;2023-01-29T04:40:42;22.13;;;16.45;;
55455;SDS011;63021;52.836;6.376;2023-01-29T04:46:14;25.65;;;16.40;;
55455;SDS011;63021;52.836;6.376;2023-01-29T04:48:41;24.88;;;16.95;;
55455;SDS011;63021;52.836;6.376;2023-01-29T04:51:23;21.38;;;16.98;;
55455;SDS011;63021;52.836;6.376;2023-01-29T04:54:07;26.17;;;17.20;;
55455;SDS011;63021;52.836;6.376;2023-01-29T04:56:40;26.88;;;18.70;;
55455;SDS011;63021;52.836;6.376;2023-01-29T04:59:17;25.30;;;17.67;;
55455;SDS011;63021;52.836;6.376;2023-01-29T05:01:47;25.08;;;17.60;;
55455;SDS011;63021;52.836;6.376;2023-01-29T05:04:14;25.65;;;17.88;;
55455;SDS011;63021;52.836;6.376;2023-01-29T05:06:43;25.55;;;17.85;;
55455;SDS011;63021;52.836;6.376;2023-01-29T05:09:11;26.20;;;18.90;;
55455;SDS011;63021;52.836;6.376;2023-01-29T05:11:39;21.60;;;16.88;;
55455;SDS011;63021;52.836;6.376;2023-01-29T05:14:05;26.20;;;18.52;;
55455;SDS011;63021;52.836;6.376;2023-01-29T05:16:37;25.30;;;17.02;;
55455;SDS011;63021;52.836;6.376;2023-01-29T05:19:15;23.85;;;18.13;;
55455;SDS011;63021;52.836;6.376;2023-01-29T05:21:45;24.63;;;16.63;;
55455;SDS011;63021;52.836;6.376;2023-01-29T05:24:14;23.67;;;16.48;;
55455;SDS011;63021;52.836;6.376;2023-01-29T05:26:42;26.25;;;17.95;;
55455;SDS011;63021;52.836;6.376;2023-01-29T05:29:29;21.83;;;17.00;;
55455;SDS011;63021;52.836;6.376;2023-01-29T05:31:54;26.10;;;19.42;;
55455;SDS011;63021;52.836;6.376;2023-01-29T05:34:20;22.58;;;16.83;;
55455;SDS011;63021;52.836;6.376;2023-01-29T05:36:45;25.20;;;17.77;;
55455;SDS011;63021;52.836;6.376;2023-01-29T05:39:10;40.30;;;19.60;;
55455;SDS011;63021;52.836;6.376;2023-01-29T05:41:36;25.70;;;17.63;;
55455;SDS011;63021;52.836;6.376;2023-01-29T05:44:01;28.63;;;19.45;;
55455;SDS011;63021;52.836;6.376;2023-01-29T05:46:27;27.95;;;18.95;;
55455;SDS011;63021;52.836;6.376;2023-01-29T05:48:52;25.02;;;18.20;;
55455;SDS011;63021;52.836;6.376;2023-01-29T05:51:17;27.02;;;20.05;;
55455;SDS011;63021;52.836;6.376;2023-01-29T05:53:43;25.10;;;19.05;;
55455;SDS011;63021;52.836;6.376;2023-01-29T05:56:08;28.35;;;20.63;;
55455;SDS011;63021;52.836;6.376;2023-01-29T05:58:34;29.52;;;21.13;;
55455;SDS011;63021;52.836;6.376;2023-01-29T06:01:18;29.40;;;19.65;;
55455;SDS011;63021;52.836;6.376;2023-01-29T06:03:46;27.60;;;20.00;;
55455;SDS011;63021;52.836;6.376;2023-01-29T06:06:12;24.00;;;18.85;;
55455;SDS011;63021;52.836;6.376;2023-01-29T06:08:38;25.40;;;19.23;;
55455;SDS011;63021;52.836;6.376;2023-01-29T06:11:05;31.75;;;21.17;;
55455;SDS011;63021;52.836;6.376;2023-01-29T06:13:32;26.95;;;19.75;;
55455;SDS011;63021;52.836;6.376;2023-01-29T06:15:57;27.88;;;20.55;;
55455;SDS011;63021;52.836;6.376;2023-01-29T06:18:22;33.50;;;21.92;;
55455;SDS011;63021;52.836;6.376;2023-01-29T06:20:48;28.80;;;19.52;;
55455;SDS011;63021;52.836;6.376;2023-01-29T06:23:13;29.10;;;21.38;;
55455;SDS011;63021;52.836;6.376;2023-01-29T06:25:39;30.30;;;20.90;;
55455;SDS011;63021;52.836;6.376;2023-01-29T06:28:04;26.75;;;18.77;;
55455;SDS011;63021;52.836;6.376;2023-01-29T06:30:29;30.55;;;20.55;;
55455;SDS011;63021;52.836;6.376;2023-01-29T06:32:58;27.60;;;19.58;;
55455;SDS011;63021;52.836;6.376;2023-01-29T06:35:26;28.23;;;19.95;;
55455;SDS011;63021;52.836;6.376;2023-01-29T06:37:51;26.33;;;19.98;;
55455;SDS011;63021;52.836;6.376;2023-01-29T06:40:17;31.25;;;21.00;;
55455;SDS011;63021;52.836;6.376;2023-01-29T06:42:43;26.75;;;19.27;;
55455;SDS011;63021;52.836;6.376;2023-01-29T06:45:08;28.90;;;20.38;;
55455;SDS011;63021;52.836;6.376;2023-01-29T06:47:34;26.33;;;19.00;;
55455;SDS011;63021;52.836;6.376;2023-01-29T06:50:02;28.45;;;20.05;;
55455;SDS011;63021;52.836;6.376;2023-01-29T06:52:28;27.38;;;20.58;;
55455;SDS011;63021;52.836;6.376;2023-01-29T06:54:56;28.42;;;20.75;;
55455;SDS011;63021;52.836;6.376;2023-01-29T06:57:22;30.88;;;21.83;;
55455;SDS011;63021;52.836;6.376;2023-01-29T06:59:47;28.80;;;20.63;;
55455;SDS011;63021;52.836;6.376;2023-01-29T07:02:13;30.42;;;21.40;;
55455;SDS011;63021;52.836;6.376;2023-01-29T07:04:39;27.00;;;20.20;;
55455;SDS011;63021;52.836;6.376;2023-01-29T07:07:05;30.05;;;21.20;;
55455;SDS011;63021;52.836;6.376;2023-01-29T07:09:37;30.10;;;22.15;;
55455;SDS011;63021;52.836;6.376;2023-01-29T07:12:05;35.20;;;22.30;;
55455;SDS011;63021;52.836;6.376;2023-01-29T07:14:31;30.90;;;21.33;;
55455;SDS011;63021;52.836;6.376;2023-01-29T07:16:56;36.00;;;21.90;;
55455;SDS011;63021;52.836;6.376;2023-01-29T07:19:22;29.73;;;21.40;;
55455;SDS011;63021;52.836;6.376;2023-01-29T07:21:47;32.67;;;22.45;;
55455;SDS011;63021;52.836;6.376;2023-01-29T07:24:13;34.10;;;22.80;;
55455;SDS011;63021;52.836;6.376;2023-01-29T07:26:38;34.22;;;22.15;;
55455;SDS011;63021;52.836;6.376;2023-01-29T07:29:04;32.13;;;23.85;;
55455;SDS011;63021;52.836;6.376;2023-01-29T07:31:29;31.67;;;22.00;;
55455;SDS011;63021;52.836;6.376;2023-01-29T07:33:54;33.53;;;22.80;;
55455;SDS011;63021;52.836;6.376;2023-01-29T07:36:20;30.63;;;20.98;;
55455;SDS011;63021;52.836;6.376;2023-01-29T07:38:47;31.30;;;21.35;;
55455;SDS011;63021;52.836;6.376;2023-01-29T07:41:14;33.03;;;21.33;;
55455;SDS011;63021;52.836;6.376;2023-01-29T07:43:40;33.88;;;23.65;;
55455;SDS011;63021;52.836;6.376;2023-01-29T07:46:05;34.95;;;22.33;;
55455;SDS011;63021;52.836;6.376;2023-01-29T07:48:31;35.35;;;25.17;;
55455;SDS011;63021;52.836;6.376;2023-01-29T07:50:56;33.45;;;22.00;;
55455;SDS011;63021;52.836;6.376;2023-01-29T07:53:23;37.03;;;24.52;;
55455;SDS011;63021;52.836;6.376;2023-01-29T07:55:48;33.45;;;23.23;;
55455;SDS011;63021;52.836;6.376;2023-01-29T07:58:14;31.20;;;22.58;;
55455;SDS011;63021;52.836;6.376;2023-01-29T08:00:40;34.33;;;23.83;;
55455;SDS011;63021;52.836;6.376;2023-01-29T08:03:06;34.92;;;22.75;;
55455;SDS011;63021;52.836;6.376;2023-01-29T08:05:34;35.05;;;22.92;;
55455;SDS011;63021;52.836;6.376;2023-01-29T08:08:00;37.97;;;24.73;;
55455;SDS011;63021;52.836;6.376;2023-01-29T08:10:28;33.00;;;22.80;;
55455;SDS011;63021;52.836;6.376;2023-01-29T08:12:57;35.03;;;23.27;;
55455;SDS011;63021;52.836;6.376;2023-01-29T08:15:24;41.95;;;24.00;;
55455;SDS011;63021;52.836;6.376;2023-01-29T08:17:50;34.42;;;22.33;;
55455;SDS011;63021;52.836;6.376;2023-01-29T08:20:16;38.20;;;22.95;;
55455;SDS011;63021;52.836;6.376;2023-01-29T08:22:42;36.28;;;23.27;;
55455;SDS011;63021;52.836;6.376;2023-01-29T08:25:07;37.63;;;24.52;;
55455;SDS011;63021;52.836;6.376;2023-01-29T08:27:33;37.10;;;23.35;;
55455;SDS011;63021;52.836;6.376;2023-01-29T08:29:59;40.13;;;25.90;;
55455;SDS011;63021;52.836;6.376;2023-01-29T08:32:29;37.63;;;25.30;;
55455;SDS011;63021;52.836;6.376;2023-01-29T08:34:55;35.92;;;23.65;;
55455;SDS011;63021;52.836;6.376;2023-01-29T08:37:23;34.80;;;22.23;;
55455;SDS011;63021;52.836;6.376;2023-01-29T08:39:49;34.63;;;23.33;;
55455;SDS011;63021;52.836;6.376;2023-01-29T08:42:14;35.58;;;23.73;;
55455;SDS011;63021;52.836;6.376;2023-01-29T08:44:40;38.40;;;23.38;;
55455;SDS011;63021;52.836;6.376;2023-01-29T08:47:05;37.22;;;23.67;;
55455;SDS011;63021;52.836;6.376;2023-01-29T08:49:31;35.78;;;24.10;;
55455;SDS011;63021;52.836;6.376;2023-01-29T08:51:56;36.40;;;23.65;;
55455;SDS011;63021;52.836;6.376;2023-01-29T08:54:22;35.83;;;23.13;;
55455;SDS011;63021;52.836;6.376;2023-01-29T08:56:51;36.15;;;22.30;;
55455;SDS011;63021;52.836;6.376;2023-01-29T08:59:16;36.38;;;23.20;;
55455;SDS011;63021;52.836;6.376;2023-01-29T09:01:42;33.35;;;22.13;;
55455;SDS011;63021;52.836;6.376;2023-01-29T09:04:07;43.45;;;25.15;;
55455;SDS011;63021;52.836;6.376;2023-01-29T09:06:33;36.15;;;23.73;;
55455;SDS011;63021;52.836;6.376;2023-01-29T09:08:58;36.97;;;22.88;;
55455;SDS011;63021;52.836;6.376;2023-01-29T09:11:24;34.08;;;22.88;;
55455;SDS011;63021;52.836;6.376;2023-01-29T09:13:49;41.65;;;24.33;;
55455;SDS011;63021;52.836;6.376;2023-01-29T09:16:15;38.75;;;22.15;;
55455;SDS011;63021;52.836;6.376;2023-01-29T09:18:40;34.60;;;23.75;;
55455;SDS011;63021;52.836;6.376;2023-01-29T09:21:06;36.42;;;22.73;;
55455;SDS011;63021;52.836;6.376;2023-01-29T09:23:31;33.38;;;22.98;;
55455;SDS011;63021;52.836;6.376;2023-01-29T09:25:58;33.38;;;23.45;;
55455;SDS011;63021;52.836;6.376;2023-01-29T09:28:23;38.47;;;25.23;;
55455;SDS011;63021;52.836;6.376;2023-01-29T09:30:49;42.72;;;24.02;;
55455;SDS011;63021;52.836;6.376;2023-01-29T09:33:14;36.42;;;24.20;;
55455;SDS011;63021;52.836;6.376;2023-01-29T09:35:40;39.15;;;21.98;;
55455;SDS011;63021;52.836;6.376;2023-01-29T09:38:11;36.00;;;21.35;;
55455;SDS011;63021;52.836;6.376;2023-01-29T09:40:42;36.72;;;22.35;;
55455;SDS011;63021;52.836;6.376;2023-01-29T09:43:24;38.63;;;21.85;;
55455;SDS011;63021;52.836;6.376;2023-01-29T09:46:21;34.55;;;22.50;;
55455;SDS011;63021;52.836;6.376;2023-01-29T09:49:05;34.83;;;22.37;;
55455;SDS011;63021;52.836;6.376;2023-01-29T09:51:53;33.88;;;21.45;;
55455;SDS011;63021;52.836;6.376;2023-01-29T09:54:29;40.95;;;21.63;;
55455;SDS011;63021;52.836;6.376;2023-01-29T09:57:14;33.22;;;21.75;;
55455;SDS011;63021;52.836;6.376;2023-01-29T09:59:45;37.28;;;23.02;;
55455;SDS011;63021;52.836;6.376;2023-01-29T10:02:24;32.88;;;21.02;;
55455;SDS011;63021;52.836;6.376;2023-01-29T10:13:18;32.40;;;20.98;;
55455;SDS011;63021;52.836;6.376;2023-01-29T10:25:05;34.05;;;22.48;;
55455;SDS011;63021;52.836;6.376;2023-01-29T10:27:37;31.90;;;23.17;;
55455;SDS011;63021;52.836;6.376;2023-01-29T10:30:17;35.28;;;22.65;;
55455;SDS011;63021;52.836;6.376;2023-01-29T10:32:53;33.13;;;22.83;;
55455;SDS011;63021;52.836;6.376;2023-01-29T10:35:23;31.80;;;22.92;;
55455;SDS011;63021;52.836;6.376;2023-01-29T10:37:54;33.25;;;21.67;;
55455;SDS011;63021;52.836;6.376;2023-01-29T10:40:28;33.70;;;22.83;;
55455;SDS011;63021;52.836;6.376;2023-01-29T10:51:07;33.25;;;21.92;;
55455;SDS011;63021;52.836;6.376;2023-01-29T10:53:56;32.95;;;22.02;;
55455;SDS011;63021;52.836;6.376;2023-01-29T11:02:44;32.88;;;21.92;;
55455;SDS011;63021;52.836;6.376;2023-01-29T11:05:28;30.73;;;22.15;;
55455;SDS011;63021;52.836;6.376;2023-01-29T11:08:13;31.90;;;21.83;;
55455;SDS011;63021;52.836;6.376;2023-01-29T11:13:53;36.75;;;22.23;;
55455;SDS011;63021;52.836;6.376;2023-01-29T11:16:29;35.22;;;22.65;;
55455;SDS011;63021;52.836;6.376;2023-01-29T11:18:58;33.80;;;21.40;;
55455;SDS011;63021;52.836;6.376;2023-01-29T11:21:25;34.13;;;21.65;;
55455;SDS011;63021;52.836;6.376;2023-01-29T11:24:11;32.53;;;20.83;;
55455;SDS011;63021;52.836;6.376;2023-01-29T11:26:41;53.20;;;24.33;;
55455;SDS011;63021;52.836;6.376;2023-01-29T11:32:13;39.50;;;22.88;;
55455;SDS011;63021;52.836;6.376;2023-01-29T11:34:55;35.40;;;22.40;;
55455;SDS011;63021;52.836;6.376;2023-01-29T11:37:37;35.17;;;20.88;;
55455;SDS011;63021;52.836;6.376;2023-01-29T11:42:42;33.38;;;22.42;;
55455;SDS011;63021;52.836;6.376;2023-01-29T11:45:26;36.90;;;22.85;;
55455;SDS011;63021;52.836;6.376;2023-01-29T11:47:56;35.05;;;21.98;;
55455;SDS011;63021;52.836;6.376;2023-01-29T11:50:23;31.65;;;21.88;;
55455;SDS011;63021;52.836;6.376;2023-01-29T11:52:51;30.95;;;21.52;;
55455;SDS011;63021;52.836;6.376;2023-01-29T11:55:30;33.75;;;22.00;;
55455;SDS011;63021;52.836;6.376;2023-01-29T11:58:03;32.05;;;21.77;;
55455;SDS011;63021;52.836;6.376;2023-01-29T12:00:40;30.42;;;21.50;;
55455;SDS011;63021;52.836;6.376;2023-01-29T12:06:00;31.08;;;20.83;;
55455;SDS011;63021;52.836;6.376;2023-01-29T12:08:42;31.45;;;20.58;;
55455;SDS011;63021;52.836;6.376;2023-01-29T12:11:24;28.15;;;20.73;;
55455;SDS011;63021;52.836;6.376;2023-01-29T12:13:54;30.23;;;22.27;;
55455;SDS011;63021;52.836;6.376;2023-01-29T12:16:43;29.80;;;19.98;;
55455;SDS011;63021;52.836;6.376;2023-01-29T12:19:15;31.52;;;21.10;;
55455;SDS011;63021;52.836;6.376;2023-01-29T12:21:49;30.83;;;21.65;;
55455;SDS011;63021;52.836;6.376;2023-01-29T12:24:37;31.23;;;20.45;;
55455;SDS011;63021;52.836;6.376;2023-01-29T12:27:14;33.10;;;20.77;;
55455;SDS011;63021;52.836;6.376;2023-01-29T12:40:41;30.20;;;21.15;;
55455;SDS011;63021;52.836;6.376;2023-01-29T12:45:43;33.38;;;21.10;;
55455;SDS011;63021;52.836;6.376;2023-01-29T12:48:20;35.00;;;20.80;;
55455;SDS011;63021;52.836;6.376;2023-01-29T12:50:50;32.33;;;21.35;;
55455;SDS011;63021;52.836;6.376;2023-01-29T12:56:22;36.38;;;23.52;;
55455;SDS011;63021;52.836;6.376;2023-01-29T12:58:53;39.05;;;23.88;;
55455;SDS011;63021;52.836;6.376;2023-01-29T13:01:25;32.22;;;21.67;;
55455;SDS011;63021;52.836;6.376;2023-01-29T13:06:24;32.42;;;21.17;;
55455;SDS011;63021;52.836;6.376;2023-01-29T13:11:39;35.15;;;21.95;;
55455;SDS011;63021;52.836;6.376;2023-01-29T13:19:57;36.90;;;23.08;;
55455;SDS011;63021;52.836;6.376;2023-01-29T13:22:32;31.48;;;21.75;;
55455;SDS011;63021;52.836;6.376;2023-01-29T13:25:02;37.88;;;23.48;;
55455;SDS011;63021;52.836;6.376;2023-01-29T13:27:29;31.23;;;20.85;;
55455;SDS011;63021;52.836;6.376;2023-01-29T13:29:56;38.08;;;21.75;;
55455;SDS011;63021;52.836;6.376;2023-01-29T13:32:29;35.45;;;22.02;;
55455;SDS011;63021;52.836;6.376;2023-01-29T13:34:57;36.45;;;21.42;;
55455;SDS011;63021;52.836;6.376;2023-01-29T13:37:33;34.95;;;21.05;;
55455;SDS011;63021;52.836;6.376;2023-01-29T13:45:16;33.90;;;22.30;;
55455;SDS011;63021;52.836;6.376;2023-01-29T13:47:43;36.00;;;22.70;;
55455;SDS011;63021;52.836;6.376;2023-01-29T13:50:16;36.38;;;23.30;;
55455;SDS011;63021;52.836;6.376;2023-01-29T13:52:43;36.30;;;23.90;;
55455;SDS011;63021;52.836;6.376;2023-01-29T14:10:21;36.28;;;23.38;;
55455;SDS011;63021;52.836;6.376;2023-01-29T14:12:53;34.92;;;23.30;;
55455;SDS011;63021;52.836;6.376;2023-01-29T14:15:39;41.33;;;24.45;;
55455;SDS011;63021;52.836;6.376;2023-01-29T14:26:00;36.58;;;25.05;;
55455;SDS011;63021;52.836;6.376;2023-01-29T14:28:31;44.58;;;26.83;;
55455;SDS011;63021;52.836;6.376;2023-01-29T14:30:58;40.67;;;25.73;;
55455;SDS011;63021;52.836;6.376;2023-01-29T14:33:31;41.25;;;26.30;;
55455;SDS011;63021;52.836;6.376;2023-01-29T14:36:02;38.45;;;24.85;;
55455;SDS011;63021;52.836;6.376;2023-01-29T14:38:30;38.25;;;25.77;;
55455;SDS011;63021;52.836;6.376;2023-01-29T14:41:04;45.83;;;26.83;;
55455;SDS011;63021;52.836;6.376;2023-01-29T14:43:38;50.05;;;28.25;;
55455;SDS011;63021;52.836;6.376;2023-01-29T14:48:57;46.17;;;27.83;;
55455;SDS011;63021;52.836;6.376;2023-01-29T14:51:26;43.42;;;27.45;;
55455;SDS011;63021;52.836;6.376;2023-01-29T14:56:34;49.45;;;28.65;;
55455;SDS011;63021;52.836;6.376;2023-01-29T15:02:03;48.38;;;28.80;;
55455;SDS011;63021;52.836;6.376;2023-01-29T15:04:42;45.92;;;29.20;;
55455;SDS011;63021;52.836;6.376;2023-01-29T15:07:18;46.53;;;29.10;;
55455;SDS011;63021;52.836;6.376;2023-01-29T15:09:48;45.97;;;28.15;;
55455;SDS011;63021;52.836;6.376;2023-01-29T15:17:54;46.20;;;28.95;;
55455;SDS011;63021;52.836;6.376;2023-01-29T15:20:25;48.97;;;29.58;;
55455;SDS011;63021;52.836;6.376;2023-01-29T15:22:52;47.42;;;29.92;;
55455;SDS011;63021;52.836;6.376;2023-01-29T15:25:17;48.85;;;29.02;;
55455;SDS011;63021;52.836;6.376;2023-01-29T15:27:45;46.55;;;29.73;;
55455;SDS011;63021;52.836;6.376;2023-01-29T15:30:14;50.63;;;31.30;;
55455;SDS011;63021;52.836;6.376;2023-01-29T15:32:42;53.00;;;30.52;;
55455;SDS011;63021;52.836;6.376;2023-01-29T15:35:10;49.63;;;30.35;;
55455;SDS011;63021;52.836;6.376;2023-01-29T15:37:56;48.53;;;30.55;;
55455;SDS011;63021;52.836;6.376;2023-01-29T15:40:26;49.33;;;28.27;;
55455;SDS011;63021;52.836;6.376;2023-01-29T15:42:52;43.85;;;27.67;;
55455;SDS011;63021;52.836;6.376;2023-01-29T15:45:38;50.35;;;31.38;;
55455;SDS011;63021;52.836;6.376;2023-01-29T15:48:06;52.00;;;29.92;;
55455;SDS011;63021;52.836;6.376;2023-01-29T15:50:38;51.80;;;29.93;;
55455;SDS011;63021;52.836;6.376;2023-01-29T15:53:07;50.83;;;29.13;;
55455;SDS011;63021;52.836;6.376;2023-01-29T15:55:38;46.13;;;29.40;;
55455;SDS011;63021;52.836;6.376;2023-01-29T15:58:04;52.03;;;31.70;;
55455;SDS011;63021;52.836;6.376;2023-01-29T16:00:33;57.08;;;31.23;;
55455;SDS011;63021;52.836;6.376;2023-01-29T16:03:09;50.40;;;30.25;;
55455;SDS011;63021;52.836;6.376;2023-01-29T16:05:39;54.08;;;29.08;;
55455;SDS011;63021;52.836;6.376;2023-01-29T16:08:05;48.88;;;28.75;;
55455;SDS011;63021;52.836;6.376;2023-01-29T16:10:36;50.55;;;32.22;;
55455;SDS011;63021;52.836;6.376;2023-01-29T16:13:04;49.95;;;29.50;;
55455;SDS011;63021;52.836;6.376;2023-01-29T16:15:37;45.47;;;28.95;;
55455;SDS011;63021;52.836;6.376;2023-01-29T16:20:51;45.50;;;27.65;;
55455;SDS011;63021;52.836;6.376;2023-01-29T16:23:26;47.53;;;30.05;;
55455;SDS011;63021;52.836;6.376;2023-01-29T16:26:00;44.92;;;28.48;;
55455;SDS011;63021;52.836;6.376;2023-01-29T16:28:27;48.40;;;29.77;;
55455;SDS011;63021;52.836;6.376;2023-01-29T16:30:56;50.08;;;28.90;;
55455;SDS011;63021;52.836;6.376;2023-01-29T16:33:31;48.35;;;29.23;;
55455;SDS011;63021;52.836;6.376;2023-01-29T16:36:00;46.08;;;29.27;;
55455;SDS011;63021;52.836;6.376;2023-01-29T16:38:30;52.13;;;29.05;;
55455;SDS011;63021;52.836;6.376;2023-01-29T16:41:12;46.67;;;28.90;;
55455;SDS011;63021;52.836;6.376;2023-01-29T16:48:44;48.35;;;29.55;;
55455;SDS011;63021;52.836;6.376;2023-01-29T16:51:19;48.55;;;30.98;;
55455;SDS011;63021;52.836;6.376;2023-01-29T16:53:54;51.33;;;30.50;;
55455;SDS011;63021;52.836;6.376;2023-01-29T16:56:20;46.08;;;28.15;;
55455;SDS011;63021;52.836;6.376;2023-01-29T16:58:49;45.50;;;28.58;;
55455;SDS011;63021;52.836;6.376;2023-01-29T17:01:16;48.00;;;28.35;;
55455;SDS011;63021;52.836;6.376;2023-01-29T17:03:42;52.17;;;29.20;;
55455;SDS011;63021;52.836;6.376;2023-01-29T17:06:11;50.05;;;29.42;;
55455;SDS011;63021;52.836;6.376;2023-01-29T17:08:45;41.45;;;24.88;;
55455;SDS011;63021;52.836;6.376;2023-01-29T17:11:11;42.42;;;28.50;;
55455;SDS011;63021;52.836;6.376;2023-01-29T17:13:46;43.55;;;25.60;;
55455;SDS011;63021;52.836;6.376;2023-01-29T17:16:14;46.53;;;27.67;;
55455;SDS011;63021;52.836;6.376;2023-01-29T17:18:43;45.75;;;28.08;;
55455;SDS011;63021;52.836;6.376;2023-01-29T17:21:08;46.08;;;27.20;;
55455;SDS011;63021;52.836;6.376;2023-01-29T17:23:34;44.63;;;27.40;;